This is the latest recevied weather packets stored in our database for station/object ON4CCM-13. If no packets are shown the sender has not sent any weather packets the latest 10 day(s).
| Time | Temp. | Humidity | Pressure | Rain* | Wind** | Luminosity | Snow |
|---|---|---|---|---|---|---|---|
| 1778050236 | 9.44° C | 99% | 1010.6 hPa | 0.25 mm | - | - | - |
| 1778041239 | 8.33° C | 91% | 1010.2 hPa | 0 mm | - | - | - |
| 1778037657 | 8.89° C | 86% | 1010.5 hPa | 0 mm | - | - | - |
| 1778037072 | 8.89° C | 85% | 1010.5 hPa | 0 mm | - | - | - |
| 1778033449 | 9.44° C | 80% | 1010.8 hPa | 0 mm | - | - | - |
| 1778031658 | 10° C | 78% | 1010.7 hPa | 0 mm | - | - | - |
| 1778031035 | 10° C | 77% | 1010.8 hPa | 0 mm | - | - | - |
| 1778029827 | 10° C | 77% | 1010.8 hPa | 0 mm | - | - | - |
| 1778022039 | 10.56° C | 79% | 1011.5 hPa | 0 mm | - | - | - |
| 1778014850 | 11.11° C | 89% | 1011.8 hPa | 0 mm | - | - | - |
| 1778014245 | 11.11° C | 91% | 1011.8 hPa | 0 mm | - | - | - |
| 1778010051 | 11.11° C | 88% | 1011.6 hPa | 0 mm | - | - | - |
| 1778008842 | 11.11° C | 87% | 1011.5 hPa | 0 mm | - | - | - |
| 1778001052 | 12.22° C | 83% | 1011.5 hPa | 0 mm | - | - | - |
| 1777995075 | 12.22° C | 88% | 1011.8 hPa | 0 mm | - | - | - |
| 1777991453 | 12.22° C | 90% | 1012.1 hPa | 0 mm | - | - | - |
| 1777990850 | 12.22° C | 91% | 1012.2 hPa | 0 mm | - | - | - |
| 1777986623 | 11.67° C | 99% | 1012.7 hPa | 0 mm | - | - | - |
| 1777983665 | 11.11° C | 99% | 1012.9 hPa | 0 mm | - | - | - |
| 1777981854 | 11.11° C | 99% | 1013 hPa | 0 mm | - | - | - |
| 1777977025 | 10° C | 99% | 1013.3 hPa | 0 mm | - | - | - |
| 1777975819 | 10° C | 99% | 1013.4 hPa | 0 mm | - | - | - |
| 1777972254 | 10° C | 99% | 1013.3 hPa | 0 mm | - | - | - |
| 1777969840 | 10° C | 99% | 1013.3 hPa | 0 mm | - | - | - |
| 1777969260 | 10° C | 99% | 1013.4 hPa | 0 mm | - | - | - |
* Rain latest hour (hover to see other rain measurements)
** Current wind speed in m/s (hover to see current wind gust speed)